sensor_id;sensor_type;location;lat;lon;timestamp;P1;durP1;ratioP1;P2;durP2;ratioP2
44276;SDS011;29973;43.742;1.236;2023-09-19T00:00:57;17.52;;;3.03;;
44276;SDS011;29973;43.742;1.236;2023-09-19T00:03:23;16.27;;;3.30;;
44276;SDS011;29973;43.742;1.236;2023-09-19T00:05:50;14.02;;;3.10;;
44276;SDS011;29973;43.742;1.236;2023-09-19T00:08:16;11.40;;;3.03;;
44276;SDS011;29973;43.742;1.236;2023-09-19T00:10:42;13.88;;;2.85;;
44276;SDS011;29973;43.742;1.236;2023-09-19T00:13:09;17.33;;;3.40;;
44276;SDS011;29973;43.742;1.236;2023-09-19T00:15:43;17.80;;;4.32;;
44276;SDS011;29973;43.742;1.236;2023-09-19T00:18:16;12.60;;;3.28;;
44276;SDS011;29973;43.742;1.236;2023-09-19T00:20:49;13.20;;;3.45;;
44276;SDS011;29973;43.742;1.236;2023-09-19T00:23:16;15.50;;;3.83;;
44276;SDS011;29973;43.742;1.236;2023-09-19T00:25:44;8.70;;;2.97;;
44276;SDS011;29973;43.742;1.236;2023-09-19T00:28:10;19.13;;;3.83;;
44276;SDS011;29973;43.742;1.236;2023-09-19T00:30:36;9.77;;;3.35;;
44276;SDS011;29973;43.742;1.236;2023-09-19T00:33:03;13.95;;;3.30;;
44276;SDS011;29973;43.742;1.236;2023-09-19T00:35:31;12.70;;;3.40;;
44276;SDS011;29973;43.742;1.236;2023-09-19T00:37:58;9.45;;;3.13;;
44276;SDS011;29973;43.742;1.236;2023-09-19T00:40:23;12.82;;;2.65;;
44276;SDS011;29973;43.742;1.236;2023-09-19T00:42:51;14.88;;;3.42;;
44276;SDS011;29973;43.742;1.236;2023-09-19T00:45:17;13.35;;;3.63;;
44276;SDS011;29973;43.742;1.236;2023-09-19T00:47:47;11.10;;;3.03;;
44276;SDS011;29973;43.742;1.236;2023-09-19T00:50:14;16.42;;;3.22;;
44276;SDS011;29973;43.742;1.236;2023-09-19T00:52:46;10.27;;;3.15;;
44276;SDS011;29973;43.742;1.236;2023-09-19T00:55:13;13.88;;;3.72;;
44276;SDS011;29973;43.742;1.236;2023-09-19T00:57:41;9.07;;;3.53;;
44276;SDS011;29973;43.742;1.236;2023-09-19T01:00:07;14.23;;;3.58;;
44276;SDS011;29973;43.742;1.236;2023-09-19T01:02:37;11.18;;;3.00;;
44276;SDS011;29973;43.742;1.236;2023-09-19T01:05:03;9.90;;;3.05;;
44276;SDS011;29973;43.742;1.236;2023-09-19T01:07:31;8.60;;;3.17;;
44276;SDS011;29973;43.742;1.236;2023-09-19T01:09:58;15.68;;;3.65;;
44276;SDS011;29973;43.742;1.236;2023-09-19T01:12:30;20.45;;;3.40;;
44276;SDS011;29973;43.742;1.236;2023-09-19T01:15:20;13.02;;;3.00;;
44276;SDS011;29973;43.742;1.236;2023-09-19T01:26:07;21.77;;;3.38;;
44276;SDS011;29973;43.742;1.236;2023-09-19T01:31:22;9.05;;;3.53;;
44276;SDS011;29973;43.742;1.236;2023-09-19T01:33:53;17.00;;;3.28;;
44276;SDS011;29973;43.742;1.236;2023-09-19T01:36:24;15.73;;;2.97;;
44276;SDS011;29973;43.742;1.236;2023-09-19T01:38:51;7.97;;;3.38;;
44276;SDS011;29973;43.742;1.236;2023-09-19T01:41:21;10.00;;;3.28;;
44276;SDS011;29973;43.742;1.236;2023-09-19T01:44:09;14.40;;;3.83;;
44276;SDS011;29973;43.742;1.236;2023-09-19T01:46:43;10.90;;;3.25;;
44276;SDS011;29973;43.742;1.236;2023-09-19T01:49:22;12.93;;;3.28;;
44276;SDS011;29973;43.742;1.236;2023-09-19T01:52:07;11.50;;;3.53;;
44276;SDS011;29973;43.742;1.236;2023-09-19T01:54:51;10.18;;;2.92;;
44276;SDS011;29973;43.742;1.236;2023-09-19T01:57:28;12.45;;;3.22;;
44276;SDS011;29973;43.742;1.236;2023-09-19T02:00:02;18.48;;;3.65;;
44276;SDS011;29973;43.742;1.236;2023-09-19T02:02:35;21.90;;;3.75;;
44276;SDS011;29973;43.742;1.236;2023-09-19T02:05:03;10.05;;;3.28;;
44276;SDS011;29973;43.742;1.236;2023-09-19T02:07:30;13.48;;;3.00;;
44276;SDS011;29973;43.742;1.236;2023-09-19T02:09:58;10.48;;;3.13;;
44276;SDS011;29973;43.742;1.236;2023-09-19T02:12:31;11.27;;;3.75;;
44276;SDS011;29973;43.742;1.236;2023-09-19T02:14:58;14.38;;;3.17;;
44276;SDS011;29973;43.742;1.236;2023-09-19T02:17:24;7.75;;;2.83;;
44276;SDS011;29973;43.742;1.236;2023-09-19T02:19:53;8.43;;;3.13;;
44276;SDS011;29973;43.742;1.236;2023-09-19T02:22:23;10.70;;;3.30;;
44276;SDS011;29973;43.742;1.236;2023-09-19T02:24:50;10.02;;;3.42;;
44276;SDS011;29973;43.742;1.236;2023-09-19T02:27:16;23.02;;;3.67;;
44276;SDS011;29973;43.742;1.236;2023-09-19T02:29:42;10.98;;;3.60;;
44276;SDS011;29973;43.742;1.236;2023-09-19T02:32:08;7.47;;;2.83;;
44276;SDS011;29973;43.742;1.236;2023-09-19T02:34:37;10.57;;;3.20;;
44276;SDS011;29973;43.742;1.236;2023-09-19T02:37:04;9.20;;;3.13;;
44276;SDS011;29973;43.742;1.236;2023-09-19T02:39:38;10.40;;;3.10;;
44276;SDS011;29973;43.742;1.236;2023-09-19T02:42:04;15.02;;;3.58;;
44276;SDS011;29973;43.742;1.236;2023-09-19T02:44:30;16.60;;;3.70;;
44276;SDS011;29973;43.742;1.236;2023-09-19T02:46:56;11.10;;;3.38;;
44276;SDS011;29973;43.742;1.236;2023-09-19T02:49:22;10.05;;;3.60;;
44276;SDS011;29973;43.742;1.236;2023-09-19T02:51:48;6.28;;;3.20;;
44276;SDS011;29973;43.742;1.236;2023-09-19T02:54:14;14.35;;;3.50;;
44276;SDS011;29973;43.742;1.236;2023-09-19T02:56:41;8.35;;;3.60;;
44276;SDS011;29973;43.742;1.236;2023-09-19T02:59:07;12.18;;;3.72;;
44276;SDS011;29973;43.742;1.236;2023-09-19T03:01:35;14.48;;;4.10;;
44276;SDS011;29973;43.742;1.236;2023-09-19T03:04:01;11.55;;;3.53;;
44276;SDS011;29973;43.742;1.236;2023-09-19T03:06:27;14.18;;;3.70;;
44276;SDS011;29973;43.742;1.236;2023-09-19T03:08:56;14.50;;;3.80;;
44276;SDS011;29973;43.742;1.236;2023-09-19T03:11:21;15.57;;;3.80;;
44276;SDS011;29973;43.742;1.236;2023-09-19T03:13:54;14.05;;;3.88;;
44276;SDS011;29973;43.742;1.236;2023-09-19T03:16:20;9.63;;;3.75;;
44276;SDS011;29973;43.742;1.236;2023-09-19T03:18:50;9.52;;;4.05;;
44276;SDS011;29973;43.742;1.236;2023-09-19T03:21:16;11.30;;;3.75;;
44276;SDS011;29973;43.742;1.236;2023-09-19T03:23:44;16.35;;;3.92;;
44276;SDS011;29973;43.742;1.236;2023-09-19T03:26:10;14.15;;;4.07;;
44276;SDS011;29973;43.742;1.236;2023-09-19T03:28:40;15.47;;;3.90;;
44276;SDS011;29973;43.742;1.236;2023-09-19T03:31:07;13.23;;;3.95;;
44276;SDS011;29973;43.742;1.236;2023-09-19T03:33:33;15.45;;;4.32;;
44276;SDS011;29973;43.742;1.236;2023-09-19T03:36:00;11.82;;;3.97;;
44276;SDS011;29973;43.742;1.236;2023-09-19T03:38:29;15.35;;;4.50;;
44276;SDS011;29973;43.742;1.236;2023-09-19T03:40:56;17.13;;;4.80;;
44276;SDS011;29973;43.742;1.236;2023-09-19T03:43:22;10.70;;;4.20;;
44276;SDS011;29973;43.742;1.236;2023-09-19T03:45:48;13.48;;;4.25;;
44276;SDS011;29973;43.742;1.236;2023-09-19T03:48:14;22.35;;;5.30;;
44276;SDS011;29973;43.742;1.236;2023-09-19T03:50:40;15.95;;;4.68;;
44276;SDS011;29973;43.742;1.236;2023-09-19T03:53:05;23.60;;;5.55;;
44276;SDS011;29973;43.742;1.236;2023-09-19T03:55:34;21.90;;;4.65;;
44276;SDS011;29973;43.742;1.236;2023-09-19T03:58:00;11.00;;;4.53;;
44276;SDS011;29973;43.742;1.236;2023-09-19T04:00:26;11.70;;;4.72;;
44276;SDS011;29973;43.742;1.236;2023-09-19T04:02:54;18.63;;;4.90;;
44276;SDS011;29973;43.742;1.236;2023-09-19T04:05:21;12.52;;;4.03;;
44276;SDS011;29973;43.742;1.236;2023-09-19T04:07:47;19.38;;;4.82;;
44276;SDS011;29973;43.742;1.236;2023-09-19T04:10:13;21.42;;;4.60;;
44276;SDS011;29973;43.742;1.236;2023-09-19T04:12:39;16.13;;;4.68;;
44276;SDS011;29973;43.742;1.236;2023-09-19T04:15:06;25.15;;;4.53;;
44276;SDS011;29973;43.742;1.236;2023-09-19T04:17:32;10.63;;;4.05;;
44276;SDS011;29973;43.742;1.236;2023-09-19T04:19:58;14.10;;;4.20;;
44276;SDS011;29973;43.742;1.236;2023-09-19T04:22:24;9.85;;;4.40;;
44276;SDS011;29973;43.742;1.236;2023-09-19T04:24:50;17.15;;;4.70;;
44276;SDS011;29973;43.742;1.236;2023-09-19T04:27:16;10.88;;;3.85;;
44276;SDS011;29973;43.742;1.236;2023-09-19T04:29:43;24.40;;;6.03;;
44276;SDS011;29973;43.742;1.236;2023-09-19T04:32:09;22.75;;;4.95;;
44276;SDS011;29973;43.742;1.236;2023-09-19T04:34:35;14.23;;;4.50;;
44276;SDS011;29973;43.742;1.236;2023-09-19T04:37:01;18.88;;;5.03;;
44276;SDS011;29973;43.742;1.236;2023-09-19T04:39:28;11.68;;;4.50;;
44276;SDS011;29973;43.742;1.236;2023-09-19T04:41:54;15.57;;;5.63;;
44276;SDS011;29973;43.742;1.236;2023-09-19T04:44:20;14.02;;;5.00;;
44276;SDS011;29973;43.742;1.236;2023-09-19T04:46:46;20.92;;;6.15;;
44276;SDS011;29973;43.742;1.236;2023-09-19T04:49:12;14.65;;;5.40;;
44276;SDS011;29973;43.742;1.236;2023-09-19T04:51:38;22.75;;;5.47;;
44276;SDS011;29973;43.742;1.236;2023-09-19T04:54:04;14.20;;;4.43;;
44276;SDS011;29973;43.742;1.236;2023-09-19T04:56:30;13.25;;;5.50;;
44276;SDS011;29973;43.742;1.236;2023-09-19T04:58:59;15.02;;;5.15;;
44276;SDS011;29973;43.742;1.236;2023-09-19T05:01:25;12.48;;;5.15;;
44276;SDS011;29973;43.742;1.236;2023-09-19T05:03:52;13.00;;;4.90;;
44276;SDS011;29973;43.742;1.236;2023-09-19T05:06:21;15.27;;;5.57;;
44276;SDS011;29973;43.742;1.236;2023-09-19T05:08:47;16.63;;;5.30;;
44276;SDS011;29973;43.742;1.236;2023-09-19T05:11:17;13.27;;;5.45;;
44276;SDS011;29973;43.742;1.236;2023-09-19T05:13:43;15.25;;;4.60;;
44276;SDS011;29973;43.742;1.236;2023-09-19T05:16:09;14.07;;;4.88;;
44276;SDS011;29973;43.742;1.236;2023-09-19T05:18:35;14.73;;;4.82;;
44276;SDS011;29973;43.742;1.236;2023-09-19T05:21:04;28.77;;;5.75;;
44276;SDS011;29973;43.742;1.236;2023-09-19T05:23:29;14.80;;;5.82;;
44276;SDS011;29973;43.742;1.236;2023-09-19T05:25:56;9.27;;;4.40;;
44276;SDS011;29973;43.742;1.236;2023-09-19T05:28:25;19.27;;;5.90;;
44276;SDS011;29973;43.742;1.236;2023-09-19T05:30:52;15.85;;;4.88;;
44276;SDS011;29973;43.742;1.236;2023-09-19T05:33:18;16.27;;;5.20;;
44276;SDS011;29973;43.742;1.236;2023-09-19T05:35:44;13.73;;;5.65;;
44276;SDS011;29973;43.742;1.236;2023-09-19T05:38:12;10.32;;;4.65;;
44276;SDS011;29973;43.742;1.236;2023-09-19T05:40:39;17.88;;;5.43;;
44276;SDS011;29973;43.742;1.236;2023-09-19T05:43:10;12.90;;;5.13;;
44276;SDS011;29973;43.742;1.236;2023-09-19T05:45:35;11.63;;;4.63;;
44276;SDS011;29973;43.742;1.236;2023-09-19T05:48:09;16.80;;;5.43;;
44276;SDS011;29973;43.742;1.236;2023-09-19T05:50:37;22.75;;;6.32;;
44276;SDS011;29973;43.742;1.236;2023-09-19T05:53:03;15.40;;;5.57;;
44276;SDS011;29973;43.742;1.236;2023-09-19T05:55:29;15.95;;;5.40;;
44276;SDS011;29973;43.742;1.236;2023-09-19T05:57:55;17.15;;;5.65;;
44276;SDS011;29973;43.742;1.236;2023-09-19T06:00:22;22.80;;;6.43;;
44276;SDS011;29973;43.742;1.236;2023-09-19T06:05:17;19.63;;;5.90;;
44276;SDS011;29973;43.742;1.236;2023-09-19T06:07:44;11.05;;;5.03;;
44276;SDS011;29973;43.742;1.236;2023-09-19T06:10:10;17.60;;;6.05;;
44276;SDS011;29973;43.742;1.236;2023-09-19T06:12:39;9.95;;;5.22;;
44276;SDS011;29973;43.742;1.236;2023-09-19T06:15:08;18.30;;;5.13;;
44276;SDS011;29973;43.742;1.236;2023-09-19T06:17:37;18.30;;;5.03;;
44276;SDS011;29973;43.742;1.236;2023-09-19T06:20:06;16.42;;;6.60;;
44276;SDS011;29973;43.742;1.236;2023-09-19T06:22:40;20.15;;;5.75;;
44276;SDS011;29973;43.742;1.236;2023-09-19T06:25:10;18.27;;;5.53;;
44276;SDS011;29973;43.742;1.236;2023-09-19T06:27:39;15.43;;;5.47;;
44276;SDS011;29973;43.742;1.236;2023-09-19T06:30:09;13.52;;;5.20;;
44276;SDS011;29973;43.742;1.236;2023-09-19T06:32:39;18.90;;;11.73;;
44276;SDS011;29973;43.742;1.236;2023-09-19T06:35:09;17.65;;;10.25;;
44276;SDS011;29973;43.742;1.236;2023-09-19T06:37:38;17.63;;;9.85;;
44276;SDS011;29973;43.742;1.236;2023-09-19T06:40:14;18.65;;;8.05;;
44276;SDS011;29973;43.742;1.236;2023-09-19T06:45:07;10.95;;;4.07;;
44276;SDS011;29973;43.742;1.236;2023-09-19T06:47:36;15.60;;;4.15;;
44276;SDS011;29973;43.742;1.236;2023-09-19T06:50:01;12.98;;;4.10;;
44276;SDS011;29973;43.742;1.236;2023-09-19T06:52:27;16.08;;;4.63;;
44276;SDS011;29973;43.742;1.236;2023-09-19T06:54:53;14.50;;;4.13;;
44276;SDS011;29973;43.742;1.236;2023-09-19T06:57:19;16.52;;;4.07;;
44276;SDS011;29973;43.742;1.236;2023-09-19T06:59:45;9.38;;;3.53;;
44276;SDS011;29973;43.742;1.236;2023-09-19T07:02:11;10.40;;;3.08;;
44276;SDS011;29973;43.742;1.236;2023-09-19T07:04:38;12.23;;;3.40;;
44276;SDS011;29973;43.742;1.236;2023-09-19T07:07:03;14.35;;;4.10;;
44276;SDS011;29973;43.742;1.236;2023-09-19T07:09:29;14.90;;;3.38;;
44276;SDS011;29973;43.742;1.236;2023-09-19T07:11:55;16.67;;;3.50;;
44276;SDS011;29973;43.742;1.236;2023-09-19T07:14:21;14.38;;;3.30;;
44276;SDS011;29973;43.742;1.236;2023-09-19T07:16:46;9.52;;;3.03;;
44276;SDS011;29973;43.742;1.236;2023-09-19T07:19:15;13.10;;;3.10;;
44276;SDS011;29973;43.742;1.236;2023-09-19T07:21:41;12.48;;;3.13;;
44276;SDS011;29973;43.742;1.236;2023-09-19T07:24:07;10.35;;;3.30;;
44276;SDS011;29973;43.742;1.236;2023-09-19T07:26:33;13.23;;;2.97;;
44276;SDS011;29973;43.742;1.236;2023-09-19T07:28:59;10.63;;;3.03;;
44276;SDS011;29973;43.742;1.236;2023-09-19T07:31:27;12.10;;;2.58;;
44276;SDS011;29973;43.742;1.236;2023-09-19T07:33:53;8.88;;;2.55;;
44276;SDS011;29973;43.742;1.236;2023-09-19T07:36:19;11.25;;;2.58;;
44276;SDS011;29973;43.742;1.236;2023-09-19T07:38:45;9.85;;;2.70;;
44276;SDS011;29973;43.742;1.236;2023-09-19T07:41:11;9.25;;;2.35;;
44276;SDS011;29973;43.742;1.236;2023-09-19T07:43:36;10.57;;;2.90;;
44276;SDS011;29973;43.742;1.236;2023-09-19T07:46:07;10.90;;;3.00;;
44276;SDS011;29973;43.742;1.236;2023-09-19T07:48:36;12.52;;;2.60;;
44276;SDS011;29973;43.742;1.236;2023-09-19T07:51:06;13.63;;;3.03;;
44276;SDS011;29973;43.742;1.236;2023-09-19T07:53:34;17.23;;;2.88;;
44276;SDS011;29973;43.742;1.236;2023-09-19T07:56:04;15.20;;;2.75;;
44276;SDS011;29973;43.742;1.236;2023-09-19T07:58:31;15.35;;;2.45;;
44276;SDS011;29973;43.742;1.236;2023-09-19T08:01:05;7.35;;;2.42;;
44276;SDS011;29973;43.742;1.236;2023-09-19T08:03:31;12.48;;;2.45;;
44276;SDS011;29973;43.742;1.236;2023-09-19T08:05:58;15.07;;;2.35;;
44276;SDS011;29973;43.742;1.236;2023-09-19T08:08:24;16.90;;;2.72;;
44276;SDS011;29973;43.742;1.236;2023-09-19T08:10:54;8.63;;;1.90;;
44276;SDS011;29973;43.742;1.236;2023-09-19T08:13:23;11.80;;;2.17;;
44276;SDS011;29973;43.742;1.236;2023-09-19T08:15:50;14.32;;;2.10;;
44276;SDS011;29973;43.742;1.236;2023-09-19T08:18:18;10.43;;;2.03;;
44276;SDS011;29973;43.742;1.236;2023-09-19T08:20:49;8.18;;;2.30;;
44276;SDS011;29973;43.742;1.236;2023-09-19T08:23:16;10.57;;;2.17;;
44276;SDS011;29973;43.742;1.236;2023-09-19T08:25:44;8.45;;;2.05;;
44276;SDS011;29973;43.742;1.236;2023-09-19T08:28:13;10.43;;;2.70;;
44276;SDS011;29973;43.742;1.236;2023-09-19T08:30:44;13.77;;;2.73;;
44276;SDS011;29973;43.742;1.236;2023-09-19T08:33:12;6.40;;;2.30;;
44276;SDS011;29973;43.742;1.236;2023-09-19T08:35:40;10.43;;;3.40;;
44276;SDS011;29973;43.742;1.236;2023-09-19T08:38:09;13.18;;;3.70;;
44276;SDS011;29973;43.742;1.236;2023-09-19T08:40:39;11.80;;;2.90;;
44276;SDS011;29973;43.742;1.236;2023-09-19T08:45:33;11.93;;;2.72;;
44276;SDS011;29973;43.742;1.236;2023-09-19T08:48:06;19.73;;;4.45;;
44276;SDS011;29973;43.742;1.236;2023-09-19T08:50:57;12.97;;;3.73;;
44276;SDS011;29973;43.742;1.236;2023-09-19T08:53:51;14.10;;;3.10;;
44276;SDS011;29973;43.742;1.236;2023-09-19T08:56:24;13.48;;;3.10;;
44276;SDS011;29973;43.742;1.236;2023-09-19T08:58:55;13.85;;;4.13;;
44276;SDS011;29973;43.742;1.236;2023-09-19T09:01:26;11.97;;;1.90;;
44276;SDS011;29973;43.742;1.236;2023-09-19T09:03:54;15.32;;;2.20;;
44276;SDS011;29973;43.742;1.236;2023-09-19T09:06:22;11.13;;;2.17;;
44276;SDS011;29973;43.742;1.236;2023-09-19T09:08:52;8.73;;;1.90;;
44276;SDS011;29973;43.742;1.236;2023-09-19T09:11:19;7.78;;;2.13;;
44276;SDS011;29973;43.742;1.236;2023-09-19T09:13:46;7.97;;;2.03;;
44276;SDS011;29973;43.742;1.236;2023-09-19T09:16:12;9.90;;;1.75;;
44276;SDS011;29973;43.742;1.236;2023-09-19T09:18:38;6.00;;;1.80;;
44276;SDS011;29973;43.742;1.236;2023-09-19T09:21:06;8.13;;;1.77;;
44276;SDS011;29973;43.742;1.236;2023-09-19T09:23:32;8.88;;;1.90;;
44276;SDS011;29973;43.742;1.236;2023-09-19T09:25:58;14.73;;;2.13;;
44276;SDS011;29973;43.742;1.236;2023-09-19T09:28:28;10.25;;;2.17;;
44276;SDS011;29973;43.742;1.236;2023-09-19T09:33:25;5.28;;;1.42;;
44276;SDS011;29973;43.742;1.236;2023-09-19T09:35:55;7.35;;;1.65;;
44276;SDS011;29973;43.742;1.236;2023-09-19T09:38:28;11.30;;;1.58;;
44276;SDS011;29973;43.742;1.236;2023-09-19T09:43:41;6.90;;;1.58;;
44276;SDS011;29973;43.742;1.236;2023-09-19T09:46:11;7.45;;;1.85;;
44276;SDS011;29973;43.742;1.236;2023-09-19T09:48:47;6.80;;;1.52;;
44276;SDS011;29973;43.742;1.236;2023-09-19T09:51:42;5.88;;;1.58;;
44276;SDS011;29973;43.742;1.236;2023-09-19T09:54:16;7.75;;;1.30;;
44276;SDS011;29973;43.742;1.236;2023-09-19T09:56:55;4.70;;;1.20;;
44276;SDS011;29973;43.742;1.236;2023-09-19T10:02:14;6.60;;;1.67;;
44276;SDS011;29973;43.742;1.236;2023-09-19T10:04:54;5.72;;;1.38;;
44276;SDS011;29973;43.742;1.236;2023-09-19T10:07:40;6.55;;;1.48;;
44276;SDS011;29973;43.742;1.236;2023-09-19T10:10:08;9.75;;;1.73;;
44276;SDS011;29973;43.742;1.236;2023-09-19T10:12:49;9.15;;;2.20;;
44276;SDS011;29973;43.742;1.236;2023-09-19T10:15:21;6.40;;;1.50;;
44276;SDS011;29973;43.742;1.236;2023-09-19T10:17:49;6.70;;;1.50;;
44276;SDS011;29973;43.742;1.236;2023-09-19T10:20:23;5.00;;;1.40;;
44276;SDS011;29973;43.742;1.236;2023-09-19T10:23:06;5.65;;;1.50;;
44276;SDS011;29973;43.742;1.236;2023-09-19T10:25:41;8.63;;;1.58;;
44276;SDS011;29973;43.742;1.236;2023-09-19T10:28:08;8.73;;;1.20;;
44276;SDS011;29973;43.742;1.236;2023-09-19T10:30:42;4.47;;;1.50;;
44276;SDS011;29973;43.742;1.236;2023-09-19T10:33:12;4.20;;;1.40;;
44276;SDS011;29973;43.742;1.236;2023-09-19T10:35:41;6.82;;;1.50;;
44276;SDS011;29973;43.742;1.236;2023-09-19T10:38:12;4.50;;;1.50;;
44276;SDS011;29973;43.742;1.236;2023-09-19T10:43:17;3.92;;;1.55;;
44276;SDS011;29973;43.742;1.236;2023-09-19T10:45:48;5.13;;;1.30;;
44276;SDS011;29973;43.742;1.236;2023-09-19T10:48:15;5.53;;;1.45;;
44276;SDS011;29973;43.742;1.236;2023-09-19T10:56:15;6.03;;;1.73;;
44276;SDS011;29973;43.742;1.236;2023-09-19T10:58:53;6.95;;;1.60;;
44276;SDS011;29973;43.742;1.236;2023-09-19T11:01:53;5.63;;;1.58;;
44276;SDS011;29973;43.742;1.236;2023-09-19T11:04:30;9.30;;;1.80;;
44276;SDS011;29973;43.742;1.236;2023-09-19T11:07:01;5.90;;;1.88;;
44276;SDS011;29973;43.742;1.236;2023-09-19T11:09:43;4.13;;;1.85;;
44276;SDS011;29973;43.742;1.236;2023-09-19T11:14:56;5.32;;;1.33;;
44276;SDS011;29973;43.742;1.236;2023-09-19T11:17:35;5.30;;;1.00;;
44276;SDS011;29973;43.742;1.236;2023-09-19T11:30:46;6.10;;;1.20;;
44276;SDS011;29973;43.742;1.236;2023-09-19T11:33:24;3.13;;;0.80;;
44276;SDS011;29973;43.742;1.236;2023-09-19T11:36:00;4.22;;;1.10;;
44276;SDS011;29973;43.742;1.236;2023-09-19T11:43:46;3.60;;;1.33;;
44276;SDS011;29973;43.742;1.236;2023-09-19T11:46:12;3.70;;;1.00;;
44276;SDS011;29973;43.742;1.236;2023-09-19T11:48:41;4.85;;;1.00;;
44276;SDS011;29973;43.742;1.236;2023-09-19T11:51:19;4.80;;;1.17;;
44276;SDS011;29973;43.742;1.236;2023-09-19T11:53:52;5.45;;;0.93;;
44276;SDS011;29973;43.742;1.236;2023-09-19T11:56:19;4.30;;;1.00;;
44276;SDS011;29973;43.742;1.236;2023-09-19T11:58:49;4.47;;;1.00;;
44276;SDS011;29973;43.742;1.236;2023-09-19T12:01:21;3.90;;;1.10;;
44276;SDS011;29973;43.742;1.236;2023-09-19T12:04:08;4.45;;;1.27;;
44276;SDS011;29973;43.742;1.236;2023-09-19T12:06:36;6.00;;;1.58;;
44276;SDS011;29973;43.742;1.236;2023-09-19T12:09:12;3.70;;;1.20;;
44276;SDS011;29973;43.742;1.236;2023-09-19T12:11:42;3.70;;;1.30;;
44276;SDS011;29973;43.742;1.236;2023-09-19T12:14:11;3.17;;;1.25;;
44276;SDS011;29973;43.742;1.236;2023-09-19T12:16:37;5.80;;;1.10;;
44276;SDS011;29973;43.742;1.236;2023-09-19T12:19:19;3.63;;;1.30;;
44276;SDS011;29973;43.742;1.236;2023-09-19T12:21:57;2.47;;;0.73;;
44276;SDS011;29973;43.742;1.236;2023-09-19T12:24:30;3.75;;;1.17;;
44276;SDS011;29973;43.742;1.236;2023-09-19T12:27:01;4.05;;;1.10;;
44276;SDS011;29973;43.742;1.236;2023-09-19T12:29:30;3.53;;;1.08;;
44276;SDS011;29973;43.742;1.236;2023-09-19T12:31:56;3.95;;;1.27;;
44276;SDS011;29973;43.742;1.236;2023-09-19T12:34:27;4.38;;;1.40;;
44276;SDS011;29973;43.742;1.236;2023-09-19T12:37:10;2.08;;;1.15;;
44276;SDS011;29973;43.742;1.236;2023-09-19T12:39:44;2.83;;;1.15;;
44276;SDS011;29973;43.742;1.236;2023-09-19T12:42:26;4.20;;;1.30;;
44276;SDS011;29973;43.742;1.236;2023-09-19T12:44:57;2.80;;;1.30;;
44276;SDS011;29973;43.742;1.236;2023-09-19T12:47:26;2.65;;;0.93;;
44276;SDS011;29973;43.742;1.236;2023-09-19T12:52:42;3.15;;;1.08;;
44276;SDS011;29973;43.742;1.236;2023-09-19T12:58:14;7.22;;;1.38;;
44276;SDS011;29973;43.742;1.236;2023-09-19T13:00:44;3.45;;;1.40;;
44276;SDS011;29973;43.742;1.236;2023-09-19T13:05:50;4.63;;;1.38;;
44276;SDS011;29973;43.742;1.236;2023-09-19T13:08:21;4.82;;;1.23;;
44276;SDS011;29973;43.742;1.236;2023-09-19T13:13:26;6.88;;;1.38;;
44276;SDS011;29973;43.742;1.236;2023-09-19T13:15:53;3.90;;;1.20;;
44276;SDS011;29973;43.742;1.236;2023-09-19T13:18:19;4.03;;;1.02;;
44276;SDS011;29973;43.742;1.236;2023-09-19T13:21:05;3.17;;;1.30;;
44276;SDS011;29973;43.742;1.236;2023-09-19T13:23:33;5.60;;;1.15;;
44276;SDS011;29973;43.742;1.236;2023-09-19T13:25:59;2.25;;;0.90;;
44276;SDS011;29973;43.742;1.236;2023-09-19T13:28:25;2.97;;;0.90;;
44276;SDS011;29973;43.742;1.236;2023-09-19T13:30:51;1.98;;;1.10;;
44276;SDS011;29973;43.742;1.236;2023-09-19T13:33:17;5.35;;;1.40;;
44276;SDS011;29973;43.742;1.236;2023-09-19T13:35:46;2.55;;;1.20;;
44276;SDS011;29973;43.742;1.236;2023-09-19T13:38:13;5.43;;;1.08;;
44276;SDS011;29973;43.742;1.236;2023-09-19T13:40:39;3.45;;;0.85;;
44276;SDS011;29973;43.742;1.236;2023-09-19T13:43:07;3.92;;;1.30;;
44276;SDS011;29973;43.742;1.236;2023-09-19T13:45:33;3.70;;;1.25;;
44276;SDS011;29973;43.742;1.236;2023-09-19T13:47:59;3.45;;;1.10;;
44276;SDS011;29973;43.742;1.236;2023-09-19T13:50:25;3.53;;;1.08;;
44276;SDS011;29973;43.742;1.236;2023-09-19T13:52:54;3.22;;;0.82;;
44276;SDS011;29973;43.742;1.236;2023-09-19T13:55:20;2.63;;;1.20;;
44276;SDS011;29973;43.742;1.236;2023-09-19T13:57:46;5.38;;;1.17;;
44276;SDS011;29973;43.742;1.236;2023-09-19T14:00:15;3.10;;;1.20;;
44276;SDS011;29973;43.742;1.236;2023-09-19T14:02:42;3.35;;;1.23;;
44276;SDS011;29973;43.742;1.236;2023-09-19T14:05:11;2.53;;;1.10;;
44276;SDS011;29973;43.742;1.236;2023-09-19T14:07:41;2.85;;;1.08;;
44276;SDS011;29973;43.742;1.236;2023-09-19T14:10:08;2.35;;;0.90;;
44276;SDS011;29973;43.742;1.236;2023-09-19T14:12:35;3.72;;;1.05;;
44276;SDS011;29973;43.742;1.236;2023-09-19T14:15:02;2.20;;;1.00;;
44276;SDS011;29973;43.742;1.236;2023-09-19T14:19:58;5.07;;;1.70;;
44276;SDS011;29973;43.742;1.236;2023-09-19T14:22:23;2.42;;;1.02;;
44276;SDS011;29973;43.742;1.236;2023-09-19T14:24:49;3.10;;;1.00;;
44276;SDS011;29973;43.742;1.236;2023-09-19T14:27:15;3.17;;;0.93;;
44276;SDS011;29973;43.742;1.236;2023-09-19T14:29:40;4.07;;;1.25;;
44276;SDS011;29973;43.742;1.236;2023-09-19T14:32:07;5.10;;;1.00;;
44276;SDS011;29973;43.742;1.236;2023-09-19T14:34:32;2.60;;;1.08;;
44276;SDS011;29973;43.742;1.236;2023-09-19T14:36:58;5.85;;;1.20;;
44276;SDS011;29973;43.742;1.236;2023-09-19T14:39:24;3.38;;;1.00;;
44276;SDS011;29973;43.742;1.236;2023-09-19T14:41:50;4.70;;;1.10;;
44276;SDS011;29973;43.742;1.236;2023-09-19T14:44:15;3.15;;;0.90;;
44276;SDS011;29973;43.742;1.236;2023-09-19T14:46:41;2.13;;;0.80;;
44276;SDS011;29973;43.742;1.236;2023-09-19T14:49:10;2.17;;;0.70;;
44276;SDS011;29973;43.742;1.236;2023-09-19T14:51:40;2.72;;;0.90;;
44276;SDS011;29973;43.742;1.236;2023-09-19T14:54:05;3.90;;;1.10;;
44276;SDS011;29973;43.742;1.236;2023-09-19T14:56:33;2.88;;;1.05;;
44276;SDS011;29973;43.742;1.236;2023-09-19T14:58:59;10.52;;;1.33;;
44276;SDS011;29973;43.742;1.236;2023-09-19T15:01:25;3.72;;;0.90;;
44276;SDS011;29973;43.742;1.236;2023-09-19T15:03:51;5.78;;;1.73;;
44276;SDS011;29973;43.742;1.236;2023-09-19T15:06:19;2.28;;;1.10;;
44276;SDS011;29973;43.742;1.236;2023-09-19T15:08:45;2.28;;;1.10;;
44276;SDS011;29973;43.742;1.236;2023-09-19T15:11:16;3.22;;;1.20;;
44276;SDS011;29973;43.742;1.236;2023-09-19T15:13:43;3.42;;;0.77;;
44276;SDS011;29973;43.742;1.236;2023-09-19T15:16:10;4.82;;;1.25;;
44276;SDS011;29973;43.742;1.236;2023-09-19T15:18:37;3.15;;;1.00;;
44276;SDS011;29973;43.742;1.236;2023-09-19T15:21:04;7.88;;;1.38;;
44276;SDS011;29973;43.742;1.236;2023-09-19T15:23:31;2.55;;;1.20;;
44276;SDS011;29973;43.742;1.236;2023-09-19T15:25:59;3.97;;;1.23;;
44276;SDS011;29973;43.742;1.236;2023-09-19T15:28:26;3.00;;;1.13;;
44276;SDS011;29973;43.742;1.236;2023-09-19T15:30:57;3.03;;;0.90;;
44276;SDS011;29973;43.742;1.236;2023-09-19T15:33:27;2.10;;;0.80;;
44276;SDS011;29973;43.742;1.236;2023-09-19T15:36:03;5.13;;;1.17;;
44276;SDS011;29973;43.742;1.236;2023-09-19T15:41:22;2.05;;;0.93;;
44276;SDS011;29973;43.742;1.236;2023-09-19T15:43:48;1.92;;;0.90;;
44276;SDS011;29973;43.742;1.236;2023-09-19T15:46:14;4.80;;;1.00;;
44276;SDS011;29973;43.742;1.236;2023-09-19T15:48:40;2.00;;;0.88;;
44276;SDS011;29973;43.742;1.236;2023-09-19T15:51:06;5.30;;;1.05;;
44276;SDS011;29973;43.742;1.236;2023-09-19T15:53:43;3.35;;;0.90;;
44276;SDS011;29973;43.742;1.236;2023-09-19T15:56:13;2.97;;;1.30;;
44276;SDS011;29973;43.742;1.236;2023-09-19T15:58:43;4.50;;;1.13;;
44276;SDS011;29973;43.742;1.236;2023-09-19T16:01:09;4.35;;;1.13;;